sensor_id;sensor_type;location;lat;lon;timestamp;temperature;humidity
21246;DHT22;10781;50.928;4.440;2022-08-19T00:00:18;22.80;99.90
21246;DHT22;10781;50.928;4.440;2022-08-19T00:02:44;22.60;99.90
21246;DHT22;10781;50.928;4.440;2022-08-19T00:05:12;22.60;99.90
21246;DHT22;10781;50.928;4.440;2022-08-19T00:07:38;22.70;99.90
21246;DHT22;10781;50.928;4.440;2022-08-19T00:10:06;22.70;99.90
21246;DHT22;10781;50.928;4.440;2022-08-19T00:12:32;22.90;99.90
21246;DHT22;10781;50.928;4.440;2022-08-19T00:14:58;22.90;99.90
21246;DHT22;10781;50.928;4.440;2022-08-19T00:17:23;22.70;99.90
21246;DHT22;10781;50.928;4.440;2022-08-19T00:19:49;22.50;99.90
21246;DHT22;10781;50.928;4.440;2022-08-19T00:22:15;22.40;99.90
21246;DHT22;10781;50.928;4.440;2022-08-19T00:24:42;22.40;99.90
21246;DHT22;10781;50.928;4.440;2022-08-19T00:27:09;22.50;99.90
21246;DHT22;10781;50.928;4.440;2022-08-19T00:29:34;22.40;99.90
21246;DHT22;10781;50.928;4.440;2022-08-19T00:32:00;22.30;99.90
21246;DHT22;10781;50.928;4.440;2022-08-19T00:34:26;22.30;99.90
21246;DHT22;10781;50.928;4.440;2022-08-19T00:36:56;22.20;99.90
21246;DHT22;10781;50.928;4.440;2022-08-19T00:39:22;22.10;99.90
21246;DHT22;10781;50.928;4.440;2022-08-19T00:41:48;22.20;99.90
21246;DHT22;10781;50.928;4.440;2022-08-19T00:44:22;22.10;99.90
21246;DHT22;10781;50.928;4.440;2022-08-19T00:46:50;22.00;99.90
21246;DHT22;10781;50.928;4.440;2022-08-19T00:49:24;21.90;99.90
21246;DHT22;10781;50.928;4.440;2022-08-19T00:52:20;22.00;99.90
21246;DHT22;10781;50.928;4.440;2022-08-19T00:54:44;22.10;99.90
21246;DHT22;10781;50.928;4.440;2022-08-19T00:57:15;22.30;99.90
21246;DHT22;10781;50.928;4.440;2022-08-19T00:59:45;22.30;99.90
21246;DHT22;10781;50.928;4.440;2022-08-19T01:02:12;22.10;99.90
21246;DHT22;10781;50.928;4.440;2022-08-19T01:04:39;22.20;99.90
21246;DHT22;10781;50.928;4.440;2022-08-19T01:07:05;22.10;99.90
21246;DHT22;10781;50.928;4.440;2022-08-19T01:09:31;22.10;99.90
21246;DHT22;10781;50.928;4.440;2022-08-19T01:11:57;22.00;99.90
21246;DHT22;10781;50.928;4.440;2022-08-19T01:14:22;22.00;99.90
21246;DHT22;10781;50.928;4.440;2022-08-19T01:16:48;22.00;99.90
21246;DHT22;10781;50.928;4.440;2022-08-19T01:19:30;22.00;99.90
21246;DHT22;10781;50.928;4.440;2022-08-19T01:22:03;22.00;99.90
21246;DHT22;10781;50.928;4.440;2022-08-19T01:24:31;21.80;99.90
21246;DHT22;10781;50.928;4.440;2022-08-19T01:26:57;21.70;99.90
21246;DHT22;10781;50.928;4.440;2022-08-19T01:29:22;21.70;99.90
21246;DHT22;10781;50.928;4.440;2022-08-19T01:31:48;21.60;99.90
21246;DHT22;10781;50.928;4.440;2022-08-19T01:34:14;21.60;99.90
21246;DHT22;10781;50.928;4.440;2022-08-19T01:36:45;21.60;99.90
21246;DHT22;10781;50.928;4.440;2022-08-19T01:39:15;21.70;99.90
21246;DHT22;10781;50.928;4.440;2022-08-19T01:41:42;21.60;99.90
21246;DHT22;10781;50.928;4.440;2022-08-19T01:44:09;21.60;99.90
21246;DHT22;10781;50.928;4.440;2022-08-19T01:46:35;21.50;99.90
21246;DHT22;10781;50.928;4.440;2022-08-19T01:49:02;21.30;99.90
21246;DHT22;10781;50.928;4.440;2022-08-19T01:51:28;21.20;99.90
21246;DHT22;10781;50.928;4.440;2022-08-19T01:53:54;21.20;99.90
21246;DHT22;10781;50.928;4.440;2022-08-19T01:56:20;21.10;99.90
21246;DHT22;10781;50.928;4.440;2022-08-19T01:58:50;21.00;99.90
21246;DHT22;10781;50.928;4.440;2022-08-19T02:01:17;20.90;99.90
21246;DHT22;10781;50.928;4.440;2022-08-19T02:03:43;20.80;99.90
21246;DHT22;10781;50.928;4.440;2022-08-19T02:06:08;20.90;99.90
21246;DHT22;10781;50.928;4.440;2022-08-19T02:08:36;20.90;99.90
21246;DHT22;10781;50.928;4.440;2022-08-19T02:11:03;20.70;99.90
21246;DHT22;10781;50.928;4.440;2022-08-19T02:13:29;20.70;99.90
21246;DHT22;10781;50.928;4.440;2022-08-19T02:15:55;20.50;99.90
21246;DHT22;10781;50.928;4.440;2022-08-19T02:18:20;20.60;99.90
21246;DHT22;10781;50.928;4.440;2022-08-19T02:20:46;20.50;99.90
21246;DHT22;10781;50.928;4.440;2022-08-19T02:23:16;20.60;99.90
21246;DHT22;10781;50.928;4.440;2022-08-19T02:25:44;20.60;99.90
21246;DHT22;10781;50.928;4.440;2022-08-19T02:28:10;20.60;99.90
21246;DHT22;10781;50.928;4.440;2022-08-19T02:30:37;20.60;99.90
21246;DHT22;10781;50.928;4.440;2022-08-19T02:33:04;20.60;99.90
21246;DHT22;10781;50.928;4.440;2022-08-19T02:35:30;20.50;99.90
21246;DHT22;10781;50.928;4.440;2022-08-19T02:37:56;20.40;99.90
21246;DHT22;10781;50.928;4.440;2022-08-19T02:41:00;20.50;99.90
21246;DHT22;10781;50.928;4.440;2022-08-19T02:43:28;20.40;99.90
21246;DHT22;10781;50.928;4.440;2022-08-19T02:45:54;20.30;99.90
21246;DHT22;10781;50.928;4.440;2022-08-19T02:48:21;20.30;99.90
21246;DHT22;10781;50.928;4.440;2022-08-19T02:50:49;20.30;99.90
21246;DHT22;10781;50.928;4.440;2022-08-19T02:53:23;20.20;99.90
21246;DHT22;10781;50.928;4.440;2022-08-19T02:55:50;20.30;99.90
21246;DHT22;10781;50.928;4.440;2022-08-19T02:58:16;20.40;99.90
21246;DHT22;10781;50.928;4.440;2022-08-19T03:00:47;20.50;99.90
21246;DHT22;10781;50.928;4.440;2022-08-19T03:03:15;20.40;99.90
21246;DHT22;10781;50.928;4.440;2022-08-19T03:05:42;20.50;99.90
21246;DHT22;10781;50.928;4.440;2022-08-19T03:08:09;20.40;99.90
21246;DHT22;10781;50.928;4.440;2022-08-19T03:10:46;20.30;99.90
21246;DHT22;10781;50.928;4.440;2022-08-19T03:13:14;20.20;99.90
21246;DHT22;10781;50.928;4.440;2022-08-19T03:15:42;20.20;99.90
21246;DHT22;10781;50.928;4.440;2022-08-19T03:18:08;20.20;99.90
21246;DHT22;10781;50.928;4.440;2022-08-19T03:20:34;20.40;99.90
21246;DHT22;10781;50.928;4.440;2022-08-19T03:22:59;20.40;99.90
21246;DHT22;10781;50.928;4.440;2022-08-19T03:25:25;20.40;99.90
21246;DHT22;10781;50.928;4.440;2022-08-19T03:27:50;20.50;99.90
21246;DHT22;10781;50.928;4.440;2022-08-19T03:30:16;20.30;99.90
21246;DHT22;10781;50.928;4.440;2022-08-19T03:32:42;20.30;99.90
21246;DHT22;10781;50.928;4.440;2022-08-19T03:35:08;20.40;99.90
21246;DHT22;10781;50.928;4.440;2022-08-19T03:37:33;20.30;99.90
21246;DHT22;10781;50.928;4.440;2022-08-19T03:40:00;20.30;99.90
21246;DHT22;10781;50.928;4.440;2022-08-19T03:42:26;20.20;99.90
21246;DHT22;10781;50.928;4.440;2022-08-19T03:44:52;20.20;99.90
21246;DHT22;10781;50.928;4.440;2022-08-19T03:47:18;20.10;99.90
21246;DHT22;10781;50.928;4.440;2022-08-19T03:49:44;20.00;99.90
21246;DHT22;10781;50.928;4.440;2022-08-19T03:52:10;19.90;99.90
21246;DHT22;10781;50.928;4.440;2022-08-19T03:54:37;19.80;99.90
21246;DHT22;10781;50.928;4.440;2022-08-19T03:57:04;19.80;99.90
21246;DHT22;10781;50.928;4.440;2022-08-19T03:59:33;19.70;99.90
21246;DHT22;10781;50.928;4.440;2022-08-19T04:02:01;19.70;99.90
21246;DHT22;10781;50.928;4.440;2022-08-19T04:04:27;19.60;99.90
21246;DHT22;10781;50.928;4.440;2022-08-19T04:06:54;19.60;99.90
21246;DHT22;10781;50.928;4.440;2022-08-19T04:09:20;19.60;99.90
21246;DHT22;10781;50.928;4.440;2022-08-19T04:11:52;19.50;99.90
21246;DHT22;10781;50.928;4.440;2022-08-19T04:14:21;19.40;99.90
21246;DHT22;10781;50.928;4.440;2022-08-19T04:16:48;19.30;99.90
21246;DHT22;10781;50.928;4.440;2022-08-19T04:19:14;19.30;99.90
21246;DHT22;10781;50.928;4.440;2022-08-19T04:21:43;19.40;99.90
21246;DHT22;10781;50.928;4.440;2022-08-19T04:24:09;19.40;99.90
21246;DHT22;10781;50.928;4.440;2022-08-19T04:26:36;19.40;99.90
21246;DHT22;10781;50.928;4.440;2022-08-19T04:29:05;19.20;99.90
21246;DHT22;10781;50.928;4.440;2022-08-19T04:31:32;19.10;99.90
21246;DHT22;10781;50.928;4.440;2022-08-19T04:34:04;19.20;99.90
21246;DHT22;10781;50.928;4.440;2022-08-19T04:36:33;19.30;99.90
21246;DHT22;10781;50.928;4.440;2022-08-19T04:39:02;19.30;99.90
21246;DHT22;10781;50.928;4.440;2022-08-19T04:41:28;19.10;99.90
21246;DHT22;10781;50.928;4.440;2022-08-19T04:44:13;19.10;99.90
21246;DHT22;10781;50.928;4.440;2022-08-19T04:46:39;19.00;99.90
21246;DHT22;10781;50.928;4.440;2022-08-19T04:49:07;19.00;99.90
21246;DHT22;10781;50.928;4.440;2022-08-19T04:51:34;19.10;99.90
21246;DHT22;10781;50.928;4.440;2022-08-19T04:54:02;19.00;99.90
21246;DHT22;10781;50.928;4.440;2022-08-19T04:56:28;19.00;99.90
21246;DHT22;10781;50.928;4.440;2022-08-19T04:58:55;19.00;99.90
21246;DHT22;10781;50.928;4.440;2022-08-19T05:01:24;19.10;99.90
21246;DHT22;10781;50.928;4.440;2022-08-19T05:03:50;19.20;99.90
21246;DHT22;10781;50.928;4.440;2022-08-19T05:06:17;19.20;99.90
21246;DHT22;10781;50.928;4.440;2022-08-19T05:08:45;19.40;99.90
21246;DHT22;10781;50.928;4.440;2022-08-19T05:11:21;19.30;99.90
21246;DHT22;10781;50.928;4.440;2022-08-19T05:13:47;19.40;99.90
21246;DHT22;10781;50.928;4.440;2022-08-19T05:16:16;19.40;99.90
21246;DHT22;10781;50.928;4.440;2022-08-19T05:18:43;19.40;99.90
21246;DHT22;10781;50.928;4.440;2022-08-19T05:21:28;19.50;99.90
21246;DHT22;10781;50.928;4.440;2022-08-19T05:24:13;19.60;99.90
21246;DHT22;10781;50.928;4.440;2022-08-19T05:26:44;19.60;99.90
21246;DHT22;10781;50.928;4.440;2022-08-19T05:29:13;19.70;99.90
21246;DHT22;10781;50.928;4.440;2022-08-19T05:31:39;19.70;99.90
21246;DHT22;10781;50.928;4.440;2022-08-19T05:34:05;19.70;99.90
21246;DHT22;10781;50.928;4.440;2022-08-19T05:36:36;19.60;99.90
21246;DHT22;10781;50.928;4.440;2022-08-19T05:39:05;19.60;99.90
21246;DHT22;10781;50.928;4.440;2022-08-19T05:41:31;19.70;99.90
21246;DHT22;10781;50.928;4.440;2022-08-19T05:43:58;19.60;99.90
21246;DHT22;10781;50.928;4.440;2022-08-19T05:46:23;19.70;99.90
21246;DHT22;10781;50.928;4.440;2022-08-19T05:48:49;19.80;99.90
21246;DHT22;10781;50.928;4.440;2022-08-19T05:51:15;19.80;99.90
21246;DHT22;10781;50.928;4.440;2022-08-19T05:53:42;20.00;99.90
21246;DHT22;10781;50.928;4.440;2022-08-19T05:56:12;20.00;99.90
21246;DHT22;10781;50.928;4.440;2022-08-19T05:58:42;20.10;99.90
21246;DHT22;10781;50.928;4.440;2022-08-19T06:01:14;20.30;99.90
21246;DHT22;10781;50.928;4.440;2022-08-19T06:03:40;20.50;99.90
21246;DHT22;10781;50.928;4.440;2022-08-19T06:06:08;20.60;99.90
21246;DHT22;10781;50.928;4.440;2022-08-19T06:08:34;20.70;99.90
21246;DHT22;10781;50.928;4.440;2022-08-19T06:11:24;21.00;99.90
21246;DHT22;10781;50.928;4.440;2022-08-19T06:13:52;21.10;99.90
21246;DHT22;10781;50.928;4.440;2022-08-19T06:16:20;21.20;99.90
21246;DHT22;10781;50.928;4.440;2022-08-19T06:18:54;21.10;99.90
21246;DHT22;10781;50.928;4.440;2022-08-19T06:21:22;21.10;99.90
21246;DHT22;10781;50.928;4.440;2022-08-19T06:23:48;21.20;99.90
21246;DHT22;10781;50.928;4.440;2022-08-19T06:26:16;21.30;99.90
21246;DHT22;10781;50.928;4.440;2022-08-19T06:28:42;21.30;99.90
21246;DHT22;10781;50.928;4.440;2022-08-19T06:31:19;21.50;99.90
21246;DHT22;10781;50.928;4.440;2022-08-19T06:33:47;21.50;99.90
21246;DHT22;10781;50.928;4.440;2022-08-19T06:38:42;21.30;99.90
21246;DHT22;10781;50.928;4.440;2022-08-19T06:41:08;21.40;99.90
21246;DHT22;10781;50.928;4.440;2022-08-19T06:43:34;21.40;99.90
21246;DHT22;10781;50.928;4.440;2022-08-19T06:46:01;21.60;99.90
21246;DHT22;10781;50.928;4.440;2022-08-19T06:48:29;22.00;99.90
21246;DHT22;10781;50.928;4.440;2022-08-19T06:50:55;22.20;99.90
21246;DHT22;10781;50.928;4.440;2022-08-19T06:53:21;22.20;99.90
21246;DHT22;10781;50.928;4.440;2022-08-19T06:55:47;22.90;99.90
21246;DHT22;10781;50.928;4.440;2022-08-19T06:58:13;23.60;99.90
21246;DHT22;10781;50.928;4.440;2022-08-19T07:00:39;24.40;99.90
21246;DHT22;10781;50.928;4.440;2022-08-19T07:03:05;24.60;99.90
21246;DHT22;10781;50.928;4.440;2022-08-19T07:05:30;24.50;99.90
21246;DHT22;10781;50.928;4.440;2022-08-19T07:07:56;24.50;99.90
21246;DHT22;10781;50.928;4.440;2022-08-19T07:10:22;24.10;99.90
21246;DHT22;10781;50.928;4.440;2022-08-19T07:12:48;23.80;99.90
21246;DHT22;10781;50.928;4.440;2022-08-19T07:15:15;23.40;99.90
21246;DHT22;10781;50.928;4.440;2022-08-19T07:17:41;23.00;99.90
21246;DHT22;10781;50.928;4.440;2022-08-19T07:20:09;22.80;99.90
21246;DHT22;10781;50.928;4.440;2022-08-19T07:22:36;22.70;99.90
21246;DHT22;10781;50.928;4.440;2022-08-19T07:25:02;22.70;99.90
21246;DHT22;10781;50.928;4.440;2022-08-19T07:27:29;22.80;99.90
21246;DHT22;10781;50.928;4.440;2022-08-19T07:29:55;23.20;99.90
21246;DHT22;10781;50.928;4.440;2022-08-19T07:32:20;23.60;99.90
21246;DHT22;10781;50.928;4.440;2022-08-19T07:34:46;23.80;99.90
21246;DHT22;10781;50.928;4.440;2022-08-19T07:37:11;23.60;99.90
21246;DHT22;10781;50.928;4.440;2022-08-19T07:39:38;23.50;99.90
21246;DHT22;10781;50.928;4.440;2022-08-19T07:42:08;23.70;99.90
21246;DHT22;10781;50.928;4.440;2022-08-19T07:44:35;23.60;99.90
21246;DHT22;10781;50.928;4.440;2022-08-19T07:47:02;24.00;99.90
21246;DHT22;10781;50.928;4.440;2022-08-19T07:49:28;24.20;99.90
21246;DHT22;10781;50.928;4.440;2022-08-19T07:51:57;24.80;99.90
21246;DHT22;10781;50.928;4.440;2022-08-19T07:54:25;24.90;99.90
21246;DHT22;10781;50.928;4.440;2022-08-19T07:56:50;25.50;99.90
21246;DHT22;10781;50.928;4.440;2022-08-19T07:59:17;25.70;99.90
21246;DHT22;10781;50.928;4.440;2022-08-19T08:01:44;25.80;99.90
21246;DHT22;10781;50.928;4.440;2022-08-19T08:04:10;25.00;99.90
21246;DHT22;10781;50.928;4.440;2022-08-19T08:06:54;24.70;99.90
21246;DHT22;10781;50.928;4.440;2022-08-19T08:09:40;25.00;99.90
21246;DHT22;10781;50.928;4.440;2022-08-19T08:12:14;25.20;99.90
21246;DHT22;10781;50.928;4.440;2022-08-19T08:14:46;25.00;99.90
21246;DHT22;10781;50.928;4.440;2022-08-19T08:17:17;25.00;99.90
21246;DHT22;10781;50.928;4.440;2022-08-19T08:19:45;25.30;99.90
21246;DHT22;10781;50.928;4.440;2022-08-19T08:22:14;26.50;99.90
21246;DHT22;10781;50.928;4.440;2022-08-19T08:25:08;27.50;99.90
21246;DHT22;10781;50.928;4.440;2022-08-19T08:27:39;28.20;99.90
21246;DHT22;10781;50.928;4.440;2022-08-19T08:30:12;28.20;99.90
21246;DHT22;10781;50.928;4.440;2022-08-19T08:32:38;27.50;99.90
21246;DHT22;10781;50.928;4.440;2022-08-19T08:35:10;27.20;99.90
21246;DHT22;10781;50.928;4.440;2022-08-19T08:37:36;26.80;99.90
21246;DHT22;10781;50.928;4.440;2022-08-19T08:40:17;26.30;99.90
21246;DHT22;10781;50.928;4.440;2022-08-19T08:43:09;26.00;99.90
21246;DHT22;10781;50.928;4.440;2022-08-19T08:45:43;25.60;99.90
21246;DHT22;10781;50.928;4.440;2022-08-19T08:48:20;24.90;99.90
21246;DHT22;10781;50.928;4.440;2022-08-19T08:50:49;24.70;99.90
21246;DHT22;10781;50.928;4.440;2022-08-19T08:53:19;25.00;99.90
21246;DHT22;10781;50.928;4.440;2022-08-19T08:55:46;25.40;99.90
21246;DHT22;10781;50.928;4.440;2022-08-19T08:58:17;24.90;99.90
21246;DHT22;10781;50.928;4.440;2022-08-19T09:00:46;24.90;99.90
21246;DHT22;10781;50.928;4.440;2022-08-19T09:08:15;25.00;99.90
21246;DHT22;10781;50.928;4.440;2022-08-19T09:10:50;24.80;99.90
21246;DHT22;10781;50.928;4.440;2022-08-19T09:16:02;24.70;99.90
21246;DHT22;10781;50.928;4.440;2022-08-19T09:18:48;24.80;99.90
21246;DHT22;10781;50.928;4.440;2022-08-19T09:21:18;24.90;99.90
21246;DHT22;10781;50.928;4.440;2022-08-19T09:23:44;25.20;99.90
21246;DHT22;10781;50.928;4.440;2022-08-19T09:26:13;25.30;99.90
21246;DHT22;10781;50.928;4.440;2022-08-19T09:28:44;25.20;99.90
21246;DHT22;10781;50.928;4.440;2022-08-19T09:31:11;25.10;99.90
21246;DHT22;10781;50.928;4.440;2022-08-19T09:33:37;25.10;99.90
21246;DHT22;10781;50.928;4.440;2022-08-19T09:36:06;25.30;99.90
21246;DHT22;10781;50.928;4.440;2022-08-19T09:38:33;24.90;99.90
21246;DHT22;10781;50.928;4.440;2022-08-19T09:41:09;24.80;99.90
21246;DHT22;10781;50.928;4.440;2022-08-19T09:43:37;25.00;99.90
21246;DHT22;10781;50.928;4.440;2022-08-19T09:46:04;25.30;99.90
21246;DHT22;10781;50.928;4.440;2022-08-19T09:48:39;25.70;99.90
21246;DHT22;10781;50.928;4.440;2022-08-19T09:51:10;25.40;99.90
21246;DHT22;10781;50.928;4.440;2022-08-19T09:53:37;25.50;99.90
21246;DHT22;10781;50.928;4.440;2022-08-19T09:56:04;25.50;99.90
21246;DHT22;10781;50.928;4.440;2022-08-19T09:58:31;25.80;99.90
21246;DHT22;10781;50.928;4.440;2022-08-19T10:00:58;25.90;99.90
21246;DHT22;10781;50.928;4.440;2022-08-19T10:03:26;25.80;99.90
21246;DHT22;10781;50.928;4.440;2022-08-19T10:05:52;25.60;99.90
21246;DHT22;10781;50.928;4.440;2022-08-19T10:08:21;25.50;99.90
21246;DHT22;10781;50.928;4.440;2022-08-19T10:10:48;25.50;99.90
21246;DHT22;10781;50.928;4.440;2022-08-19T10:13:16;25.70;99.90
21246;DHT22;10781;50.928;4.440;2022-08-19T10:15:43;26.10;99.90
21246;DHT22;10781;50.928;4.440;2022-08-19T10:18:08;26.50;99.90
21246;DHT22;10781;50.928;4.440;2022-08-19T10:20:35;26.50;99.90
21246;DHT22;10781;50.928;4.440;2022-08-19T10:23:03;26.50;99.90
21246;DHT22;10781;50.928;4.440;2022-08-19T10:25:29;26.60;99.90
21246;DHT22;10781;50.928;4.440;2022-08-19T10:27:55;26.70;99.90
21246;DHT22;10781;50.928;4.440;2022-08-19T10:30:21;26.80;99.90
21246;DHT22;10781;50.928;4.440;2022-08-19T10:32:46;26.80;99.90
21246;DHT22;10781;50.928;4.440;2022-08-19T10:35:13;26.70;99.90
21246;DHT22;10781;50.928;4.440;2022-08-19T10:37:39;26.80;99.90
21246;DHT22;10781;50.928;4.440;2022-08-19T10:40:06;26.80;99.90
21246;DHT22;10781;50.928;4.440;2022-08-19T10:42:34;26.90;99.90
21246;DHT22;10781;50.928;4.440;2022-08-19T10:44:59;26.50;99.90
21246;DHT22;10781;50.928;4.440;2022-08-19T10:47:25;26.60;99.90
21246;DHT22;10781;50.928;4.440;2022-08-19T10:49:54;26.30;99.90
21246;DHT22;10781;50.928;4.440;2022-08-19T10:52:44;26.10;99.90
21246;DHT22;10781;50.928;4.440;2022-08-19T10:55:10;26.10;99.90
21246;DHT22;10781;50.928;4.440;2022-08-19T10:57:54;26.40;99.90
21246;DHT22;10781;50.928;4.440;2022-08-19T11:00:20;26.40;99.90
21246;DHT22;10781;50.928;4.440;2022-08-19T11:02:46;26.50;99.90
21246;DHT22;10781;50.928;4.440;2022-08-19T11:05:12;26.30;99.90
21246;DHT22;10781;50.928;4.440;2022-08-19T11:07:41;26.20;99.90
21246;DHT22;10781;50.928;4.440;2022-08-19T11:10:08;26.20;99.90
21246;DHT22;10781;50.928;4.440;2022-08-19T11:12:37;26.30;99.90
21246;DHT22;10781;50.928;4.440;2022-08-19T11:15:05;26.10;99.90
21246;DHT22;10781;50.928;4.440;2022-08-19T11:17:32;25.70;99.90
21246;DHT22;10781;50.928;4.440;2022-08-19T11:19:58;25.30;99.90
21246;DHT22;10781;50.928;4.440;2022-08-19T11:22:27;25.00;99.90
21246;DHT22;10781;50.928;4.440;2022-08-19T11:24:53;24.80;99.90
21246;DHT22;10781;50.928;4.440;2022-08-19T11:27:18;24.80;99.90
21246;DHT22;10781;50.928;4.440;2022-08-19T11:29:44;24.90;99.90
21246;DHT22;10781;50.928;4.440;2022-08-19T11:32:10;25.10;99.90
21246;DHT22;10781;50.928;4.440;2022-08-19T11:34:36;25.20;99.90
21246;DHT22;10781;50.928;4.440;2022-08-19T11:37:03;25.40;99.90
21246;DHT22;10781;50.928;4.440;2022-08-19T11:39:30;25.80;99.90
21246;DHT22;10781;50.928;4.440;2022-08-19T11:42:00;26.00;99.90
21246;DHT22;10781;50.928;4.440;2022-08-19T11:44:27;26.00;99.90
21246;DHT22;10781;50.928;4.440;2022-08-19T11:46:55;25.90;99.90
21246;DHT22;10781;50.928;4.440;2022-08-19T11:49:21;26.00;99.90
21246;DHT22;10781;50.928;4.440;2022-08-19T11:51:48;26.10;99.90
21246;DHT22;10781;50.928;4.440;2022-08-19T11:54:16;26.20;99.90
21246;DHT22;10781;50.928;4.440;2022-08-19T11:56:43;26.20;99.90
21246;DHT22;10781;50.928;4.440;2022-08-19T11:59:09;26.60;99.90
21246;DHT22;10781;50.928;4.440;2022-08-19T12:01:36;26.90;99.90
21246;DHT22;10781;50.928;4.440;2022-08-19T12:04:02;27.10;99.90
21246;DHT22;10781;50.928;4.440;2022-08-19T12:06:31;27.30;99.90
21246;DHT22;10781;50.928;4.440;2022-08-19T12:08:59;27.20;99.90
21246;DHT22;10781;50.928;4.440;2022-08-19T12:11:26;27.30;99.90
21246;DHT22;10781;50.928;4.440;2022-08-19T12:13:52;27.50;99.90
21246;DHT22;10781;50.928;4.440;2022-08-19T12:16:22;28.10;99.90
21246;DHT22;10781;50.928;4.440;2022-08-19T12:18:49;28.80;99.90
21246;DHT22;10781;50.928;4.440;2022-08-19T12:21:18;29.50;99.90
21246;DHT22;10781;50.928;4.440;2022-08-19T12:23:47;30.30;99.90
21246;DHT22;10781;50.928;4.440;2022-08-19T12:26:13;30.80;99.90
21246;DHT22;10781;50.928;4.440;2022-08-19T12:28:39;30.50;99.90
21246;DHT22;10781;50.928;4.440;2022-08-19T12:31:05;30.50;99.90
21246;DHT22;10781;50.928;4.440;2022-08-19T12:33:31;30.60;99.90
21246;DHT22;10781;50.928;4.440;2022-08-19T12:36:01;30.40;99.90
21246;DHT22;10781;50.928;4.440;2022-08-19T12:38:27;30.10;99.90
21246;DHT22;10781;50.928;4.440;2022-08-19T12:40:52;30.10;99.90
21246;DHT22;10781;50.928;4.440;2022-08-19T12:43:18;30.10;99.90
21246;DHT22;10781;50.928;4.440;2022-08-19T12:45:45;30.30;99.90
21246;DHT22;10781;50.928;4.440;2022-08-19T12:48:12;30.60;99.90
21246;DHT22;10781;50.928;4.440;2022-08-19T12:50:42;30.40;99.90
21246;DHT22;10781;50.928;4.440;2022-08-19T12:53:08;30.80;99.90
21246;DHT22;10781;50.928;4.440;2022-08-19T12:55:34;31.00;99.90
21246;DHT22;10781;50.928;4.440;2022-08-19T12:58:00;31.10;99.90
21246;DHT22;10781;50.928;4.440;2022-08-19T13:00:27;31.30;99.90
21246;DHT22;10781;50.928;4.440;2022-08-19T13:02:54;31.20;99.90
21246;DHT22;10781;50.928;4.440;2022-08-19T13:05:25;31.30;99.90
21246;DHT22;10781;50.928;4.440;2022-08-19T13:07:53;31.10;99.90
21246;DHT22;10781;50.928;4.440;2022-08-19T13:10:22;32.90;99.90
21246;DHT22;10781;50.928;4.440;2022-08-19T13:12:50;34.00;99.90
21246;DHT22;10781;50.928;4.440;2022-08-19T13:15:20;33.40;99.90
21246;DHT22;10781;50.928;4.440;2022-08-19T13:17:47;33.10;99.90
21246;DHT22;10781;50.928;4.440;2022-08-19T13:20:18;32.50;99.90
21246;DHT22;10781;50.928;4.440;2022-08-19T13:22:45;31.90;99.90
21246;DHT22;10781;50.928;4.440;2022-08-19T13:25:12;31.20;99.90
21246;DHT22;10781;50.928;4.440;2022-08-19T13:27:38;31.20;99.90
21246;DHT22;10781;50.928;4.440;2022-08-19T13:30:07;31.10;99.90
21246;DHT22;10781;50.928;4.440;2022-08-19T13:32:51;32.00;99.90
21246;DHT22;10781;50.928;4.440;2022-08-19T13:35:35;33.40;99.90
21246;DHT22;10781;50.928;4.440;2022-08-19T13:38:01;33.00;99.90
21246;DHT22;10781;50.928;4.440;2022-08-19T13:40:30;32.60;99.90
21246;DHT22;10781;50.928;4.440;2022-08-19T13:42:57;33.00;99.90
21246;DHT22;10781;50.928;4.440;2022-08-19T13:45:24;35.30;99.90
21246;DHT22;10781;50.928;4.440;2022-08-19T13:47:53;36.50;96.30
21246;DHT22;10781;50.928;4.440;2022-08-19T13:50:23;36.10;94.70
21246;DHT22;10781;50.928;4.440;2022-08-19T13:52:52;35.60;94.60
21246;DHT22;10781;50.928;4.440;2022-08-19T13:55:18;34.70;94.80
21246;DHT22;10781;50.928;4.440;2022-08-19T13:57:44;33.90;95.90
21246;DHT22;10781;50.928;4.440;2022-08-19T14:00:16;33.20;97.00
21246;DHT22;10781;50.928;4.440;2022-08-19T14:02:44;33.90;97.70
21246;DHT22;10781;50.928;4.440;2022-08-19T14:05:13;34.40;96.40
21246;DHT22;10781;50.928;4.440;2022-08-19T14:07:39;34.20;96.20
21246;DHT22;10781;50.928;4.440;2022-08-19T14:10:06;34.60;95.00
21246;DHT22;10781;50.928;4.440;2022-08-19T14:12:32;34.20;94.30
21246;DHT22;10781;50.928;4.440;2022-08-19T14:14:59;33.20;96.00
21246;DHT22;10781;50.928;4.440;2022-08-19T14:17:24;32.20;97.40
21246;DHT22;10781;50.928;4.440;2022-08-19T14:19:59;32.00;99.00
21246;DHT22;10781;50.928;4.440;2022-08-19T14:22:29;32.30;98.20
21246;DHT22;10781;50.928;4.440;2022-08-19T14:24:57;31.50;99.10
21246;DHT22;10781;50.928;4.440;2022-08-19T14:27:22;31.00;99.90
21246;DHT22;10781;50.928;4.440;2022-08-19T14:29:49;29.40;99.90
21246;DHT22;10781;50.928;4.440;2022-08-19T14:32:15;28.20;99.90
21246;DHT22;10781;50.928;4.440;2022-08-19T14:34:40;27.60;99.90
21246;DHT22;10781;50.928;4.440;2022-08-19T14:37:06;27.30;99.90
21246;DHT22;10781;50.928;4.440;2022-08-19T14:39:33;26.90;99.90
21246;DHT22;10781;50.928;4.440;2022-08-19T14:41:58;26.90;99.90
21246;DHT22;10781;50.928;4.440;2022-08-19T14:44:24;26.80;99.90
21246;DHT22;10781;50.928;4.440;2022-08-19T14:46:50;26.80;99.90
21246;DHT22;10781;50.928;4.440;2022-08-19T14:49:16;26.90;99.90
21246;DHT22;10781;50.928;4.440;2022-08-19T14:51:41;27.10;99.90
21246;DHT22;10781;50.928;4.440;2022-08-19T14:54:07;27.50;99.90
21246;DHT22;10781;50.928;4.440;2022-08-19T14:56:33;27.90;99.90
21246;DHT22;10781;50.928;4.440;2022-08-19T14:58:58;27.60;99.90
21246;DHT22;10781;50.928;4.440;2022-08-19T15:01:26;27.50;99.90
21246;DHT22;10781;50.928;4.440;2022-08-19T15:03:52;27.50;99.90
21246;DHT22;10781;50.928;4.440;2022-08-19T15:06:20;28.10;99.90
21246;DHT22;10781;50.928;4.440;2022-08-19T15:08:48;29.30;99.90
21246;DHT22;10781;50.928;4.440;2022-08-19T15:11:17;30.40;99.90
21246;DHT22;10781;50.928;4.440;2022-08-19T15:13:45;31.00;99.90
21246;DHT22;10781;50.928;4.440;2022-08-19T15:16:12;31.70;99.90
21246;DHT22;10781;50.928;4.440;2022-08-19T15:18:40;31.60;99.90
21246;DHT22;10781;50.928;4.440;2022-08-19T15:21:09;31.10;99.90
21246;DHT22;10781;50.928;4.440;2022-08-19T15:23:35;30.60;99.90
21246;DHT22;10781;50.928;4.440;2022-08-19T15:26:01;30.40;99.90
21246;DHT22;10781;50.928;4.440;2022-08-19T15:28:27;30.20;99.90
21246;DHT22;10781;50.928;4.440;2022-08-19T15:30:53;30.00;99.90
21246;DHT22;10781;50.928;4.440;2022-08-19T15:33:20;30.00;99.90
21246;DHT22;10781;50.928;4.440;2022-08-19T15:35:47;30.00;99.90
21246;DHT22;10781;50.928;4.440;2022-08-19T15:38:15;29.80;99.90
21246;DHT22;10781;50.928;4.440;2022-08-19T15:40:44;29.70;99.90
21246;DHT22;10781;50.928;4.440;2022-08-19T15:43:10;29.40;99.90
21246;DHT22;10781;50.928;4.440;2022-08-19T15:45:36;29.10;99.90